Time;durP1;ratioP1;P1;durP2;ratioP2;P2;SDS_P1;SDS_P2;PMS_P1;PMS_P2;Temp;Humidity;BMP_temperature;BMP_pressure;BME280_temperature;BME280_humidity;BME280_pressure;Samples;Min_cycle;Max_cycle;Signal;HPM_P1;HPM_P2
2021/07/10 00:00:23;;;;;;;7.53;6.65;;;;;;;22.57;58.68;101891.19;5012377;28;20036;-72
2021/07/10 00:02:48;;;;;;;8.13;6.45;;;;;;;22.58;58.73;101896.34;5013360;28;20034;-71
2021/07/10 00:05:17;;;;;;;7.60;6.50;;;;;;;22.57;58.89;101888.53;5013444;28;20021;-71
2021/07/10 00:07:43;;;;;;;9.50;6.80;;;;;;;22.57;58.83;101891.19;5012592;28;20084;-72
2021/07/10 00:10:14;;;;;;;8.45;6.70;;;;;;;22.57;58.58;101892.03;5013316;28;20462;-71
2021/07/10 00:12:40;;;;;;;7.50;6.55;;;;;;;22.55;58.76;101883.34;5012438;28;20022;-71
2021/07/10 00:15:08;;;;;;;7.75;6.68;;;;;;;22.56;58.72;101878.88;5013115;28;20036;-71
2021/07/10 00:17:33;;;;;;;7.63;6.55;;;;;;;22.56;58.66;101870.91;5012684;28;20049;-70
2021/07/10 00:19:58;;;;;;;8.23;6.43;;;;;;;22.54;58.47;101878.16;5012634;28;20026;-71
2021/07/10 00:22:24;;;;;;;7.82;6.32;;;;;;;22.53;58.44;101877.31;5012703;28;20026;-71
2021/07/10 00:24:49;;;;;;;7.65;6.10;;;;;;;22.54;58.50;101875.50;5013211;28;20026;-71
2021/07/10 00:27:14;;;;;;;7.70;6.55;;;;;;;22.52;58.73;101882.75;5012106;28;20084;-71
2021/07/10 00:29:40;;;;;;;7.40;6.53;;;;;;;22.53;58.55;101885.28;5013152;28;20037;-71
2021/07/10 00:32:05;;;;;;;9.25;6.50;;;;;;;22.53;58.42;101881.78;5013110;28;20068;-71
2021/07/10 00:34:31;;;;;;;7.97;7.18;;;;;;;22.53;58.75;101868.50;5012412;28;20394;-70
2021/07/10 00:36:56;;;;;;;7.03;6.30;;;;;;;22.52;58.69;101870.31;5013328;28;20060;-71
2021/07/10 00:39:21;;;;;;;6.93;6.13;;;;;;;22.52;58.62;101874.78;5012402;28;20135;-70
2021/07/10 00:41:47;;;;;;;8.50;6.38;;;;;;;22.50;58.68;101871.44;5012049;28;20034;-72
2021/07/10 00:44:12;;;;;;;8.25;6.85;;;;;;;22.51;58.49;101870.44;5013006;28;20026;-72
2021/07/10 00:46:37;;;;;;;7.40;6.60;;;;;;;22.49;58.45;101865.25;5012476;28;20524;-72
2021/07/10 00:49:03;;;;;;;7.82;6.63;;;;;;;22.49;58.70;101867.91;5012161;28;20072;-71
2021/07/10 00:51:29;;;;;;;7.72;6.60;;;;;;;22.50;58.53;101868.78;5012624;28;20109;-72
2021/07/10 00:53:54;;;;;;;8.60;6.80;;;;;;;22.49;58.68;101862.59;5012946;28;20073;-71
2021/07/10 00:56:20;;;;;;;7.65;6.53;;;;;;;22.48;58.62;101863.59;5012018;28;20022;-72
2021/07/10 00:58:46;;;;;;;7.68;6.70;;;;;;;22.49;58.85;101861.75;5012929;28;20022;-71
2021/07/10 01:01:11;;;;;;;8.50;7.32;;;;;;;22.48;58.24;101855.63;5012421;28;20026;-70
2021/07/10 01:03:44;;;;;;;8.32;6.53;;;;;;;22.49;58.44;101848.47;5012081;28;20032;-71
2021/07/10 01:06:09;;;;;;;9.10;7.13;;;;;;;22.46;58.49;101849.56;5012804;28;20076;-71
2021/07/10 01:08:35;;;;;;;10.55;6.90;;;;;;;22.48;58.25;101850.31;5016043;28;20355;-70
2021/07/10 01:11:01;;;;;;;6.95;6.10;;;;;;;22.45;58.60;101837.28;5016209;28;20029;-72
2021/07/10 01:13:29;;;;;;;7.85;6.63;;;;;;;22.48;58.48;101838.81;5016198;28;20547;-72
2021/07/10 01:15:56;;;;;;;7.35;6.30;;;;;;;22.41;58.43;101826.09;5016281;28;20025;-72
2021/07/10 01:18:21;;;;;;;7.95;6.82;;;;;;;22.45;58.68;101837.28;5016674;28;20051;-72
2021/07/10 01:20:53;;;;;;;7.47;6.45;;;;;;;22.46;58.33;101839.81;5016474;28;20377;-71
2021/07/10 01:23:21;;;;;;;7.10;6.38;;;;;;;22.44;58.74;101836.41;5015642;28;20307;-71
2021/07/10 01:25:51;;;;;;;8.95;6.50;;;;;;;22.43;58.53;101834.75;5016460;28;20394;-70
2021/07/10 01:28:18;;;;;;;6.90;6.20;;;;;;;22.43;58.48;101829.44;5016626;28;20373;-72
2021/07/10 01:30:45;;;;;;;8.40;7.07;;;;;;;22.44;58.33;101831.09;5015854;28;20029;-73
2021/07/10 01:33:11;;;;;;;8.05;6.72;;;;;;;22.44;58.54;101824.97;5016477;28;20040;-71
2021/07/10 01:35:37;;;;;;;8.15;6.72;;;;;;;22.43;58.67;101820.63;5015943;28;20440;-72
2021/07/10 01:38:08;;;;;;;8.13;7.25;;;;;;;22.39;58.68;101806.75;5015615;28;20431;-72
2021/07/10 01:40:35;;;;;;;7.72;6.45;;;;;;;22.43;58.34;101816.16;5015263;28;20054;-72
2021/07/10 01:43:03;;;;;;;7.88;6.55;;;;;;;22.43;58.54;101815.28;5016463;28;20026;-72
2021/07/10 01:45:30;;;;;;;7.30;6.15;;;;;;;22.44;58.60;101817.00;5015565;28;20053;-70
2021/07/10 01:47:58;;;;;;;7.53;6.35;;;;;;;22.42;58.48;101811.81;5016480;28;20104;-72
2021/07/10 01:50:23;;;;;;;8.55;6.55;;;;;;;22.43;58.34;101815.28;5016098;28;20447;-72
2021/07/10 01:52:49;;;;;;;7.50;6.03;;;;;;;22.41;58.10;101809.28;5016745;28;20549;-72
2021/07/10 01:55:15;;;;;;;7.88;6.63;;;;;;;22.43;58.42;101807.34;5018583;28;20033;-71
2021/07/10 01:57:44;;;;;;;7.30;6.20;;;;;;;22.41;58.29;101802.19;5018676;28;20028;-73
2021/07/10 02:00:25;;;;;;;8.00;6.75;;;;;;;22.42;58.28;101809.16;5018162;28;20060;-71
2021/07/10 02:02:53;;;;;;;8.15;6.30;;;;;;;22.40;58.48;101804.97;5019052;28;20394;-72
2021/07/10 02:05:21;;;;;;;7.50;6.20;;;;;;;22.41;58.53;101803.97;5017591;28;20022;-71
2021/07/10 02:07:47;;;;;;;8.43;6.78;;;;;;;22.40;58.20;101797.81;5018709;28;20085;-71
2021/07/10 02:10:16;;;;;;;7.97;6.40;;;;;;;22.40;58.12;101797.81;5018723;28;20054;-72
2021/07/10 02:12:56;;;;;;;8.95;6.72;;;;;;;22.40;58.46;101797.81;5018682;28;20026;-71
2021/07/10 02:15:22;;;;;;;8.50;6.60;;;;;;;22.40;58.08;101792.50;5018168;28;20079;-70
2021/07/10 02:17:48;;;;;;;9.25;7.03;;;;;;;22.39;58.17;101790.81;5018167;28;20026;-71
2021/07/10 02:20:16;;;;;;;8.50;6.88;;;;;;;22.40;58.09;101794.34;5016227;28;20398;-72
2021/07/10 02:22:42;;;;;;;7.90;6.97;;;;;;;22.37;58.22;101795.44;5017530;28;20084;-71
2021/07/10 02:25:09;;;;;;;9.07;6.65;;;;;;;22.38;58.42;101799.78;5018608;28;20026;-72
2021/07/10 02:27:35;;;;;;;8.07;6.75;;;;;;;22.39;58.34;101797.97;5017259;28;20108;-71
2021/07/10 02:30:00;;;;;;;7.93;6.57;;;;;;;22.38;58.28;101793.59;5018093;28;20461;-72
2021/07/10 02:32:26;;;;;;;8.25;7.18;;;;;;;22.38;58.72;101798.91;5016497;28;20105;-71
2021/07/10 02:34:51;;;;;;;8.57;7.25;;;;;;;22.38;58.16;101793.59;5015574;28;20482;-72
2021/07/10 02:37:19;;;;;;;8.45;7.00;;;;;;;22.36;58.33;101787.59;5016238;28;20484;-75
2021/07/10 02:39:53;;;;;;;8.05;6.80;;;;;;;22.37;58.31;101789.28;5016727;28;20046;-71
2021/07/10 02:42:19;;;;;;;8.50;6.82;;;;;;;22.35;58.01;101785.91;5015245;28;20030;-71
2021/07/10 02:44:44;;;;;;;8.05;7.13;;;;;;;22.37;58.08;101781.31;5016109;28;20026;-70
2021/07/10 02:47:09;;;;;;;8.50;6.55;;;;;;;22.32;58.48;101773.75;5015735;28;20477;-71
2021/07/10 02:49:35;;;;;;;8.43;6.47;;;;;;;22.36;57.96;101779.63;5014644;28;20026;-72
2021/07/10 02:52:00;;;;;;;9.05;6.90;;;;;;;22.35;58.42;101773.47;5015896;28;20034;-70
2021/07/10 02:54:26;;;;;;;8.73;7.00;;;;;;;22.35;58.19;101768.16;5014757;28;20547;-71
2021/07/10 02:56:51;;;;;;;7.70;6.60;;;;;;;22.35;58.19;101762.84;5015475;28;20117;-72
2021/07/10 02:59:19;;;;;;;9.20;7.50;;;;;;;22.35;58.02;101767.31;5015015;28;20438;-72
2021/07/10 03:01:45;;;;;;;8.75;6.93;;;;;;;22.35;58.32;101768.16;5015049;28;20651;-71
2021/07/10 03:04:10;;;;;;;8.27;6.22;;;;;;;22.35;58.11;101764.66;5015993;28;20026;-71
2021/07/10 03:06:35;;;;;;;8.87;7.53;;;;;;;22.32;58.29;101757.81;5016251;28;20034;-70
2021/07/10 03:09:00;;;;;;;9.60;7.40;;;;;;;22.34;58.29;101749.72;5016197;28;20731;-71
2021/07/10 03:11:26;;;;;;;8.18;6.63;;;;;;;22.35;58.15;101746.06;5013167;28;20272;-71
2021/07/10 03:13:51;;;;;;;8.43;7.28;;;;;;;22.34;58.28;101745.22;5013864;28;20480;-72
2021/07/10 03:16:16;;;;;;;8.15;7.18;;;;;;;22.33;58.56;101742.72;5012468;28;20026;-71
2021/07/10 03:18:41;;;;;;;8.13;7.03;;;;;;;22.33;58.01;101738.22;5013842;28;20109;-72
2021/07/10 03:21:07;;;;;;;9.77;7.90;;;;;;;22.34;58.07;101733.78;5014355;28;20038;-72
2021/07/10 03:23:32;;;;;;;8.50;7.07;;;;;;;22.32;58.05;101736.56;5012815;28;20137;-71
2021/07/10 03:25:57;;;;;;;9.63;7.35;;;;;;;22.32;57.99;101731.25;5013689;28;20049;-71
2021/07/10 03:28:23;;;;;;;8.45;7.25;;;;;;;22.32;58.28;101736.56;5013610;28;20088;-71
2021/07/10 03:30:51;;;;;;;8.98;7.38;;;;;;;22.28;58.24;101727.97;5012504;28;20060;-71
2021/07/10 03:33:17;;;;;;;8.77;6.93;;;;;;;22.32;58.01;101731.25;5013710;28;20022;-72
2021/07/10 03:35:42;;;;;;;9.90;7.72;;;;;;;22.30;57.80;101727.88;5014161;28;20397;-71
2021/07/10 03:38:08;;;;;;;9.57;7.32;;;;;;;22.32;58.06;101727.75;5013040;28;20381;-71
2021/07/10 03:40:33;;;;;;;8.40;7.32;;;;;;;22.32;57.93;101725.09;5012976;28;20076;-71
2021/07/10 03:42:59;;;;;;;9.48;7.43;;;;;;;22.31;58.17;101734.88;5013784;28;20034;-71
2021/07/10 03:45:24;;;;;;;9.23;7.82;;;;;;;22.31;57.92;101728.72;5012537;28;20064;-71
2021/07/10 03:47:52;;;;;;;9.57;8.18;;;;;;;22.29;58.21;101731.47;5014357;28;20026;-72
2021/07/10 03:50:19;;;;;;;8.73;7.07;;;;;;;22.28;58.05;101733.28;5013718;28;20026;-71
2021/07/10 03:52:44;;;;;;;8.13;7.10;;;;;;;22.28;58.13;101727.13;5012962;28;20093;-71
2021/07/10 03:55:11;;;;;;;8.73;7.05;;;;;;;22.28;58.02;101735.94;5013439;28;20107;-72
2021/07/10 03:57:37;;;;;;;9.63;7.78;;;;;;;22.29;58.04;101728.81;5012524;28;20548;-71
2021/07/10 04:00:15;;;;;;;9.15;7.05;;;;;;;22.30;58.22;101727.88;5013225;28;20061;-72
2021/07/10 04:02:43;;;;;;;8.75;7.50;;;;;;;22.29;58.02;101726.16;5013603;28;20026;-72
2021/07/10 04:05:10;;;;;;;9.68;7.75;;;;;;;22.28;57.96;101719.16;5012582;28;20025;-72
2021/07/10 04:07:39;;;;;;;8.95;6.75;;;;;;;22.27;58.03;101715.69;5012945;28;20112;-72
2021/07/10 04:10:06;;;;;;;9.32;7.15;;;;;;;22.28;57.90;101720.00;5013359;28;20030;-72
2021/07/10 04:12:32;;;;;;;8.68;7.35;;;;;;;22.26;58.12;101719.28;5014590;28;20044;-71
2021/07/10 04:15:00;;;;;;;9.65;7.95;;;;;;;22.27;57.99;101718.34;5017865;28;20034;-72
2021/07/10 04:17:30;;;;;;;8.55;7.53;;;;;;;22.28;58.11;101721.81;5017918;28;20022;-72
2021/07/10 04:20:04;;;;;;;9.77;7.20;;;;;;;22.25;58.03;101709.63;5016312;28;20030;-72
2021/07/10 04:22:30;;;;;;;8.38;7.28;;;;;;;22.28;57.91;101724.47;5016502;28;20415;-70
2021/07/10 04:24:55;;;;;;;9.65;7.38;;;;;;;22.28;57.98;101721.81;5017617;28;20105;-72
2021/07/10 04:27:21;;;;;;;8.45;7.50;;;;;;;22.27;58.00;101725.44;5016481;28;20053;-72
2021/07/10 04:29:48;;;;;;;8.40;7.13;;;;;;;22.25;58.15;101720.25;5017869;28;20365;-72
2021/07/10 04:32:18;;;;;;;9.52;7.50;;;;;;;22.27;58.21;101721.00;5015321;28;20056;-72
2021/07/10 04:34:43;;;;;;;9.35;7.18;;;;;;;22.26;57.98;101724.59;5012281;28;20026;-72
2021/07/10 04:37:09;;;;;;;9.68;7.05;;;;;;;22.26;58.17;101719.28;5012904;28;20025;-72
2021/07/10 04:39:34;;;;;;;8.55;6.90;;;;;;;22.26;58.21;101721.13;5012550;28;20054;-71
2021/07/10 04:42:00;;;;;;;10.13;7.32;;;;;;;22.27;58.23;101731.63;5011787;28;20065;-72
2021/07/10 04:44:25;;;;;;;9.15;6.80;;;;;;;22.26;57.88;101729.09;5012792;28;20061;-71
2021/07/10 04:46:51;;;;;;;9.30;7.65;;;;;;;22.24;58.29;101723.06;5012878;28;20076;-71
2021/07/10 04:49:16;;;;;;;9.50;7.15;;;;;;;22.27;58.23;101725.44;5012588;28;20060;-71
2021/07/10 04:51:42;;;;;;;9.05;7.43;;;;;;;22.26;58.08;101724.59;5012848;28;20371;-72
2021/07/10 04:54:07;;;;;;;9.13;7.43;;;;;;;22.26;58.31;101726.44;5011919;28;20049;-71
2021/07/10 04:56:32;;;;;;;9.40;7.50;;;;;;;22.26;58.17;101729.91;5012309;28;20030;-71
2021/07/10 04:58:58;;;;;;;8.80;7.45;;;;;;;22.27;58.04;101728.97;5012746;28;20029;-72
2021/07/10 05:01:23;;;;;;;9.07;7.18;;;;;;;22.26;57.97;101726.44;5011677;28;20026;-71
2021/07/10 05:03:49;;;;;;;9.38;7.43;;;;;;;22.26;58.10;101729.91;5012326;28;20018;-72
2021/07/10 05:06:14;;;;;;;10.20;7.45;;;;;;;22.27;58.33;101734.28;5012406;28;20026;-71
2021/07/10 05:08:42;;;;;;;8.55;7.65;;;;;;;22.27;58.02;101733.41;5012061;28;20033;-72
2021/07/10 05:11:07;;;;;;;9.30;7.68;;;;;;;22.27;58.34;101728.09;5012874;28;20030;-71
2021/07/10 05:13:33;;;;;;;9.18;7.57;;;;;;;22.27;58.18;101728.09;5012235;28;20358;-71
2021/07/10 05:15:58;;;;;;;9.68;7.40;;;;;;;22.27;58.29;101730.75;5011918;28;20041;-71
2021/07/10 05:18:24;;;;;;;9.00;7.30;;;;;;;22.26;58.03;101724.59;5012095;28;20581;-71
2021/07/10 05:20:49;;;;;;;10.15;7.63;;;;;;;22.28;58.02;101727.13;5012190;28;20030;-72
2021/07/10 05:23:15;;;;;;;9.82;7.30;;;;;;;22.27;58.36;101725.44;5011166;28;20327;-70
2021/07/10 05:25:40;;;;;;;8.73;7.30;;;;;;;22.26;58.29;101721.13;5012254;28;20105;-72
2021/07/10 05:28:06;;;;;;;9.38;7.35;;;;;;;22.27;58.32;101725.44;5012437;28;20481;-71
2021/07/10 05:30:31;;;;;;;8.93;7.28;;;;;;;22.27;58.30;101722.78;5011434;28;20026;-71
2021/07/10 05:32:56;;;;;;;9.07;7.45;;;;;;;22.26;58.28;101721.94;5012334;28;20084;-72
2021/07/10 05:35:23;;;;;;;10.80;7.30;;;;;;;22.27;57.85;101714.81;5012166;28;20037;-71
2021/07/10 05:37:49;;;;;;;8.75;7.07;;;;;;;22.27;58.06;101723.66;5011595;28;20032;-71
2021/07/10 05:40:16;;;;;;;9.48;7.07;;;;;;;22.27;58.17;101718.34;5011813;28;20078;-71
2021/07/10 05:42:41;;;;;;;9.50;7.45;;;;;;;22.27;58.19;101721.00;5012434;28;20423;-71
2021/07/10 05:45:10;;;;;;;8.90;7.10;;;;;;;22.27;58.30;101723.66;5011603;28;20114;-72
2021/07/10 05:47:35;;;;;;;9.15;7.18;;;;;;;22.26;58.27;101715.81;5011839;28;20018;-70
2021/07/10 05:50:02;;;;;;;9.20;7.68;;;;;;;22.26;58.18;101721.13;5012238;28;20076;-68
2021/07/10 05:52:28;;;;;;;8.93;6.82;;;;;;;22.26;58.14;101727.25;5010741;28;20076;-68
2021/07/10 05:54:53;;;;;;;9.23;7.05;;;;;;;22.27;58.12;101728.09;5014996;28;20391;-68
2021/07/10 05:57:18;;;;;;;9.32;7.03;;;;;;;22.25;58.25;101727.38;5014431;28;20033;-69
2021/07/10 05:59:44;;;;;;;10.07;6.93;;;;;;;22.26;57.81;101727.25;5015396;28;20032;-68
2021/07/10 06:02:11;;;;;;;9.60;6.97;;;;;;;22.24;58.21;101726.56;5015238;28;20294;-68
2021/07/10 06:04:40;;;;;;;9.00;6.90;;;;;;;22.23;58.00;101722.22;5014303;28;20026;-69
2021/07/10 06:07:07;;;;;;;8.73;6.68;;;;;;;22.26;57.77;101721.13;5015324;28;20034;-69
2021/07/10 06:09:33;;;;;;;9.50;6.85;;;;;;;22.26;58.23;101721.94;5015097;28;20026;-68
2021/07/10 06:11:59;;;;;;;8.05;6.25;;;;;;;22.26;58.21;101715.81;5014747;28;20108;-69
2021/07/10 06:14:24;;;;;;;9.65;6.75;;;;;;;22.27;58.17;101722.78;5014897;28;20025;-69
2021/07/10 06:16:52;;;;;;;8.63;6.95;;;;;;;22.27;58.31;101712.16;5015433;28;20099;-69
2021/07/10 06:19:18;;;;;;;10.40;6.75;;;;;;;22.29;57.88;101718.22;5014098;28;20108;-68
2021/07/10 06:21:43;;;;;;;9.02;6.50;;;;;;;22.29;58.53;101720.84;5014917;28;20113;-69
2021/07/10 06:24:08;;;;;;;7.87;6.07;;;;;;;22.28;58.11;101725.31;5015139;28;20482;-69
2021/07/10 06:26:33;;;;;;;8.83;6.63;;;;;;;22.26;58.37;101721.94;5013912;28;20276;-69
2021/07/10 06:29:00;;;;;;;8.70;7.05;;;;;;;22.31;58.46;101726.06;5015174;28;20329;-71
2021/07/10 06:31:26;;;;;;;9.00;6.88;;;;;;;22.28;58.36;101713.84;5014818;28;20049;-70
2021/07/10 06:33:51;;;;;;;8.57;6.47;;;;;;;22.32;58.63;101720.63;5014157;28;20496;-69
2021/07/10 06:36:17;;;;;;;8.93;6.90;;;;;;;22.35;58.68;101723.03;5014600;28;20036;-72
2021/07/10 06:38:42;;;;;;;8.77;6.53;;;;;;;22.35;58.51;101727.47;5015083;28;20779;-76
2021/07/10 06:41:08;;;;;;;7.70;5.95;;;;;;;22.36;58.73;101722.03;5014785;28;20421;-74
2021/07/10 06:43:33;;;;;;;8.45;6.22;;;;;;;22.36;58.58;101719.38;5014649;28;20022;-73
2021/07/10 06:45:59;;;;;;;8.05;6.18;;;;;;;22.35;58.88;101715.06;5014958;28;20034;-71
2021/07/10 06:48:25;;;;;;;8.13;5.65;;;;;;;22.40;58.91;101719.97;5014366;28;20022;-73
2021/07/10 06:50:51;;;;;;;7.93;5.40;;;;;;;22.40;59.07;101718.16;5015712;28;20098;-77
2021/07/10 06:53:22;;;;;;;8.45;6.53;;;;;;;22.44;59.03;101718.72;5016959;28;20022;-76
2021/07/10 06:55:49;;;;;;;8.57;5.97;;;;;;;22.45;59.11;101721.25;5017193;28;20037;-74
2021/07/10 06:58:15;;;;;;;8.68;6.18;;;;;;;22.49;58.79;101723.63;5022162;28;20032;-69
2021/07/10 07:00:46;;;;;;;7.88;5.90;;;;;;;22.49;59.30;101728.97;5017382;28;20086;-70
2021/07/10 07:03:12;;;;;;;8.75;5.65;;;;;;;22.50;59.16;101725.34;5016414;28;20040;-71
2021/07/10 07:05:37;;;;;;;9.82;5.90;;;;;;;22.52;59.09;101716.25;5014301;28;20374;-69
2021/07/10 07:08:03;;;;;;;8.20;5.47;;;;;;;22.53;58.98;101712.63;5015095;28;20026;-74
2021/07/10 07:10:28;;;;;;;8.50;5.38;;;;;;;22.54;59.14;101714.31;5014509;28;20022;-69
2021/07/10 07:12:53;;;;;;;7.95;5.70;;;;;;;22.55;59.11;101709.84;5014553;28;20355;-70
2021/07/10 07:15:22;;;;;;;7.57;5.53;;;;;;;22.53;59.05;101706.47;5012892;28;20342;-69
2021/07/10 07:17:47;;;;;;;6.88;5.43;;;;;;;22.56;58.95;101712.34;5013903;28;20046;-69
2021/07/10 07:20:15;;;;;;;9.35;5.75;;;;;;;22.55;58.57;101708.00;5014060;28;20082;-69
2021/07/10 07:22:49;;;;;;;6.88;5.18;;;;;;;22.56;58.86;101707.03;5013195;28;20030;-72
2021/07/10 07:25:16;;;;;;;;;;;;;;;22.57;58.71;101707.88;5014931;28;20032;-72
2021/07/10 07:27:41;;;;;;;10.20;5.22;;;;;;;22.60;59.06;101704.97;5014077;28;20288;-69
2021/07/10 07:30:08;;;;;;;9.30;5.22;;;;;;;22.59;58.95;101701.47;5012983;28;20029;-70
2021/07/10 07:32:37;;;;;;;7.20;5.10;;;;;;;22.60;59.25;101703.13;5013472;28;20037;-69
2021/07/10 07:35:08;;;;;;;8.07;5.07;;;;;;;22.59;59.15;101697.97;5013489;28;20498;-70
2021/07/10 07:37:33;;;;;;;7.22;5.57;;;;;;;22.63;59.33;101702.03;5012910;28;20105;-70
2021/07/10 07:40:06;;;;;;;7.53;4.97;;;;;;;22.64;59.04;101696.59;5013684;28;20070;-70
2021/07/10 07:42:32;;;;;;;7.87;5.20;;;;;;;22.66;58.72;101707.09;5013233;28;20116;-69
2021/07/10 07:44:57;;;;;;;8.80;5.28;;;;;;;22.66;58.76;101704.44;5013100;28;20370;-73
2021/07/10 07:47:23;;;;;;;9.55;4.80;;;;;;;22.66;59.09;101693.78;5015303;28;20037;-71
2021/07/10 07:49:54;;;;;;;7.40;5.00;;;;;;;22.67;58.56;101697.28;5014329;28;20112;-71
2021/07/10 07:52:19;;;;;;;7.22;4.68;;;;;;;22.66;58.64;101690.31;5013931;28;20018;-72
2021/07/10 07:54:44;;;;;;;7.53;4.85;;;;;;;22.65;58.33;101700.06;5014388;28;20037;-72
2021/07/10 07:57:10;;;;;;;6.97;5.15;;;;;;;22.65;58.65;101700.06;5014628;28;20174;-70
2021/07/10 07:59:35;;;;;;;6.85;4.43;;;;;;;22.66;58.37;101699.09;5014562;28;20045;-75
2021/07/10 08:02:01;;;;;;;7.80;4.47;;;;;;;22.67;58.37;101691.97;5014376;28;20048;-73
2021/07/10 08:04:26;;;;;;;7.65;4.40;;;;;;;22.67;58.62;101684.00;5012838;28;20442;-71
2021/07/10 08:06:51;;;;;;;7.25;4.10;;;;;;;22.66;58.18;101685.00;5013381;28;20022;-68
2021/07/10 08:09:17;;;;;;;6.63;4.45;;;;;;;22.65;58.09;101686.78;5013277;28;20486;-71
2021/07/10 08:11:42;;;;;;;7.25;4.13;;;;;;;22.63;57.66;101678.97;5012633;28;20030;-70
2021/07/10 08:14:08;;;;;;;7.65;4.60;;;;;;;22.59;57.13;101674.91;5013117;28;20025;-70
2021/07/10 08:16:33;;;;;;;7.63;4.25;;;;;;;22.60;57.75;101681.06;5012426;28;20489;-70
2021/07/10 08:18:59;;;;;;;8.50;5.15;;;;;;;22.57;57.83;101684.84;5012417;28;20022;-70
2021/07/10 08:21:26;;;;;;;8.02;4.82;;;;;;;22.57;57.77;101682.19;5012668;28;20133;-68
2021/07/10 08:23:53;;;;;;;6.55;4.60;;;;;;;22.59;57.76;101676.72;5013068;28;20473;-69
2021/07/10 08:26:18;;;;;;;6.90;4.40;;;;;;;22.59;57.58;101674.91;5012066;28;20036;-69
2021/07/10 08:28:43;;;;;;;8.17;4.50;;;;;;;22.58;57.77;101677.69;5012878;28;20428;-68
2021/07/10 08:31:08;;;;;;;6.13;4.03;;;;;;;22.57;57.63;101671.56;5013223;28;20334;-70
2021/07/10 08:33:34;;;;;;;7.82;4.68;;;;;;;22.59;57.73;101680.22;5012019;28;20111;-70
2021/07/10 08:36:02;;;;;;;7.05;4.22;;;;;;;22.59;57.23;101666.94;5012731;28;20041;-69
2021/07/10 08:38:27;;;;;;;7.57;4.38;;;;;;;22.59;57.32;101674.06;5012128;28;20033;-70
2021/07/10 08:40:54;;;;;;;6.00;4.28;;;;;;;22.59;57.53;101674.91;5011952;28;20393;-70
2021/07/10 08:43:20;;;;;;;6.28;3.95;;;;;;;22.59;57.55;101676.72;5012211;28;20466;-71
2021/07/10 08:45:47;;;;;;;7.05;4.25;;;;;;;22.54;57.31;101663.84;5012759;28;20056;-70
2021/07/10 08:48:13;;;;;;;7.22;4.20;;;;;;;22.58;57.31;101669.72;5012112;28;20109;-69
2021/07/10 08:50:39;;;;;;;5.50;4.28;;;;;;;22.59;57.49;101658.97;5012350;28;20060;-68
2021/07/10 08:53:05;;;;;;;5.30;3.85;;;;;;;22.59;57.65;101660.78;5011903;28;20539;-69
2021/07/10 08:55:31;;;;;;;5.68;4.00;;;;;;;22.59;57.38;101661.63;5012252;28;20030;-70
2021/07/10 08:57:58;;;;;;;6.00;4.05;;;;;;;22.59;57.58;101658.97;5012260;28;20056;-69
2021/07/10 09:00:28;;;;;;;6.82;4.10;;;;;;;22.60;57.61;101659.78;5011412;28;20053;-70
2021/07/10 09:02:55;;;;;;;6.55;4.40;;;;;;;22.58;57.55;101651.97;5012565;28;20022;-70
2021/07/10 09:05:21;;;;;;;5.90;4.25;;;;;;;22.59;57.36;101652.81;5011938;28;20026;-69
2021/07/10 09:08:13;;;;;;;7.15;4.20;;;;;;;22.59;57.21;101653.66;5011772;28;20109;-68
2021/07/10 09:10:40;;;;;;;5.88;4.10;;;;;;;22.60;57.54;101651.81;5012133;28;20033;-69
2021/07/10 09:13:05;;;;;;;6.35;4.53;;;;;;;22.60;57.47;101652.66;5012811;28;20026;-70
2021/07/10 09:15:32;;;;;;;6.07;4.00;;;;;;;22.62;57.37;101655.19;5011580;28;20029;-69
2021/07/10 09:17:58;;;;;;;7.35;4.25;;;;;;;22.61;57.50;101646.38;5012335;28;20026;-70
2021/07/10 09:20:26;;;;;;;7.80;4.82;;;;;;;22.63;57.24;101646.25;5011924;28;20022;-70
2021/07/10 09:22:53;;;;;;;6.55;4.30;;;;;;;22.63;57.24;101643.59;5011587;28;20029;-69
2021/07/10 09:25:30;;;;;;;6.07;4.30;;;;;;;22.63;57.42;101652.38;5011889;28;20505;-69
2021/07/10 09:27:57;;;;;;;7.30;4.40;;;;;;;22.64;57.33;101648.78;5012862;28;20030;-69
2021/07/10 09:30:49;;;;;;;7.30;4.47;;;;;;;22.65;57.12;101649.59;5014848;28;20485;-69
2021/07/10 09:33:16;;;;;;;7.55;4.22;;;;;;;22.66;57.17;101642.50;5013419;28;20041;-70
2021/07/10 09:35:56;;;;;;;6.07;4.15;;;;;;;22.64;57.02;101634.66;5015496;28;20048;-69
2021/07/10 09:38:26;;;;;;;5.55;3.90;;;;;;;22.67;57.14;101638.84;5014948;28;20379;-69
2021/07/10 09:41:11;;;;;;;5.32;3.80;;;;;;;22.66;57.31;101631.88;5015732;28;20030;-69
2021/07/10 09:43:39;;;;;;;5.95;4.18;;;;;;;22.68;57.28;101635.22;5015129;28;20101;-69
2021/07/10 09:46:07;;;;;;;6.03;3.97;;;;;;;22.67;57.15;101629.06;5015809;28;20113;-70
2021/07/10 09:48:37;;;;;;;5.72;4.30;;;;;;;22.67;57.00;101625.56;5015494;28;20053;-70
2021/07/10 09:51:25;;;;;;;6.18;4.10;;;;;;;22.69;56.86;101629.75;5015092;28;20029;-69
2021/07/10 09:53:58;;;;;;;6.00;4.00;;;;;;;22.69;56.74;101624.44;5015561;28;20119;-70
2021/07/10 09:56:24;;;;;;;5.88;3.85;;;;;;;22.68;56.65;101625.41;5014479;28;20415;-68
2021/07/10 09:58:58;;;;;;;5.90;4.07;;;;;;;22.69;56.76;101621.78;5015263;28;20022;-69
2021/07/10 10:01:31;;;;;;;5.72;4.03;;;;;;;22.72;56.78;101616.22;5015144;28;20115;-69
2021/07/10 10:03:57;;;;;;;6.45;4.05;;;;;;;22.73;56.88;101620.56;5014776;28;20029;-69
2021/07/10 10:06:27;;;;;;;6.43;4.32;;;;;;;22.74;56.63;101616.06;5015251;28;20034;-70
2021/07/10 10:08:52;;;;;;;6.60;4.43;;;;;;;22.74;56.29;101610.75;5015195;28;20033;-69
2021/07/10 10:11:18;;;;;;;6.00;3.50;;;;;;;22.71;56.34;101601.22;5014675;28;20028;-69
2021/07/10 10:13:43;;;;;;;5.07;3.60;;;;;;;22.72;56.27;101604.75;5015410;28;20366;-69
2021/07/10 10:16:16;;;;;;;6.30;3.90;;;;;;;22.69;55.85;101595.22;5015193;28;20274;-69
2021/07/10 10:18:44;;;;;;;6.00;4.10;;;;;;;22.71;56.21;101603.06;5014573;28;20715;-69
2021/07/10 10:21:10;;;;;;;5.13;3.67;;;;;;;22.70;55.88;101607.53;5014980;28;20025;-69
2021/07/10 10:23:35;;;;;;;5.28;3.55;;;;;;;22.71;55.94;101600.41;5014702;28;20440;-69
2021/07/10 10:26:02;;;;;;;6.03;4.25;;;;;;;22.70;56.30;101599.56;5014596;28;20033;-69
2021/07/10 10:28:32;;;;;;;5.60;3.97;;;;;;;22.71;55.77;101601.22;5014573;28;20041;-69
2021/07/10 10:30:58;;;;;;;6.38;3.92;;;;;;;22.71;55.88;101597.75;5014948;28;20022;-69
2021/07/10 10:33:26;;;;;;;5.32;3.70;;;;;;;22.71;56.31;101598.56;5013996;28;20129;-69
2021/07/10 10:35:53;;;;;;;5.57;3.58;;;;;;;22.73;56.11;101593.13;5014829;28;20030;-69
2021/07/10 10:38:19;;;;;;;5.78;4.00;;;;;;;22.72;56.12;101576.34;5014529;28;20418;-69
2021/07/10 10:40:45;;;;;;;5.53;3.67;;;;;;;22.73;56.46;101578.03;5013220;28;20069;-70
2021/07/10 10:43:18;;;;;;;6.43;3.88;;;;;;;22.75;56.44;101578.75;5014915;28;20026;-70
2021/07/10 10:45:44;;;;;;;6.20;4.00;;;;;;;22.78;56.29;101580.25;5014220;28;20109;-71
2021/07/10 10:48:09;;;;;;;5.65;3.80;;;;;;;22.78;56.28;101573.16;5014709;28;20492;-68
2021/07/10 10:50:37;;;;;;;6.40;3.78;;;;;;;22.84;56.38;101577.06;5014392;28;20026;-70
2021/07/10 10:53:05;;;;;;;5.45;3.97;;;;;;;22.83;56.68;101572.75;5014142;28;20029;-70
2021/07/10 10:55:31;;;;;;;5.97;3.92;;;;;;;22.83;56.24;101570.91;5014294;28;20022;-70
2021/07/10 10:58:22;;;;;;;5.47;3.67;;;;;;;22.84;56.72;101566.44;5014637;28;20026;-72
2021/07/10 11:00:59;;;;;;;6.55;3.80;;;;;;;22.82;56.36;101563.91;5009329;28;20069;-77
2021/07/10 11:03:38;;;;;;;6.00;4.10;;;;;;;22.87;56.54;101567.97;5015910;28;20121;-71
2021/07/10 11:06:03;;;;;;;7.03;3.97;;;;;;;22.87;56.41;101560.00;5015300;28;20022;-71
2021/07/10 11:08:37;;;;;;;6.30;3.35;;;;;;;22.89;56.38;101552.72;5013449;28;20367;-70
2021/07/10 11:11:03;;;;;;;6.15;3.75;;;;;;;22.93;56.24;101554.97;5014669;28;20033;-70
2021/07/10 11:13:29;;;;;;;6.47;3.70;;;;;;;22.97;56.02;101556.38;5015200;28;20030;-72
2021/07/10 11:16:24;;;;;;;6.82;4.72;;;;;;;23.00;56.39;101548.13;5014885;28;20026;-71
2021/07/10 11:18:50;;;;;;;7.43;3.72;;;;;;;23.03;56.51;101547.00;4978572;28;20090;-70
2021/07/10 11:21:31;;;;;;;6.72;3.63;;;;;;;23.05;56.26;101550.38;5013624;28;20092;-72
2021/07/10 11:24:19;;;;;;;6.05;4.10;;;;;;;23.06;56.48;101545.88;5014860;28;20085;-71